sensor_id;sensor_type;location;lat;lon;timestamp;P1;durP1;ratioP1;P2;durP2;ratioP2
35380;SDS011;21486;51.916;8.378;2023-04-12T00:01:04;16.13;;;3.95;;
35380;SDS011;21486;51.916;8.378;2023-04-12T00:03:30;12.38;;;3.90;;
35380;SDS011;21486;51.916;8.378;2023-04-12T00:05:57;12.95;;;3.85;;
35380;SDS011;21486;51.916;8.378;2023-04-12T00:08:27;13.68;;;3.80;;
35380;SDS011;21486;51.916;8.378;2023-04-12T00:10:57;12.50;;;4.10;;
35380;SDS011;21486;51.916;8.378;2023-04-12T00:13:23;13.27;;;3.90;;
35380;SDS011;21486;51.916;8.378;2023-04-12T00:15:49;13.00;;;3.90;;
35380;SDS011;21486;51.916;8.378;2023-04-12T00:18:14;10.70;;;3.60;;
35380;SDS011;21486;51.916;8.378;2023-04-12T00:20:40;16.80;;;4.87;;
35380;SDS011;21486;51.916;8.378;2023-04-12T00:23:06;13.50;;;4.53;;
35380;SDS011;21486;51.916;8.378;2023-04-12T00:25:33;12.70;;;3.88;;
35380;SDS011;21486;51.916;8.378;2023-04-12T00:28:00;15.75;;;3.67;;
35380;SDS011;21486;51.916;8.378;2023-04-12T00:33:03;16.80;;;3.80;;
35380;SDS011;21486;51.916;8.378;2023-04-12T00:35:29;12.03;;;3.80;;
35380;SDS011;21486;51.916;8.378;2023-04-12T00:37:54;10.83;;;3.57;;
35380;SDS011;21486;51.916;8.378;2023-04-12T00:40:20;13.90;;;3.53;;
35380;SDS011;21486;51.916;8.378;2023-04-12T00:42:46;12.15;;;3.45;;
35380;SDS011;21486;51.916;8.378;2023-04-12T00:45:12;11.70;;;3.40;;
35380;SDS011;21486;51.916;8.378;2023-04-12T00:47:38;14.95;;;4.18;;
35380;SDS011;21486;51.916;8.378;2023-04-12T00:50:07;13.30;;;3.30;;
35380;SDS011;21486;51.916;8.378;2023-04-12T00:52:33;12.80;;;3.60;;
35380;SDS011;21486;51.916;8.378;2023-04-12T00:55:03;10.25;;;3.42;;
35380;SDS011;21486;51.916;8.378;2023-04-12T00:57:33;11.35;;;3.50;;
35380;SDS011;21486;51.916;8.378;2023-04-12T01:00:03;13.95;;;3.50;;
35380;SDS011;21486;51.916;8.378;2023-04-12T01:02:32;12.43;;;3.63;;
35380;SDS011;21486;51.916;8.378;2023-04-12T01:04:58;12.15;;;3.65;;
35380;SDS011;21486;51.916;8.378;2023-04-12T01:07:34;15.48;;;4.15;;
35380;SDS011;21486;51.916;8.378;2023-04-12T01:10:15;18.80;;;3.47;;
35380;SDS011;21486;51.916;8.378;2023-04-12T01:15:33;12.55;;;3.80;;
35380;SDS011;21486;51.916;8.378;2023-04-12T01:18:04;13.95;;;3.50;;
35380;SDS011;21486;51.916;8.378;2023-04-12T01:20:41;10.68;;;3.28;;
35380;SDS011;21486;51.916;8.378;2023-04-12T01:29:01;11.60;;;3.10;;
35380;SDS011;21486;51.916;8.378;2023-04-12T01:31:31;11.05;;;3.30;;
35380;SDS011;21486;51.916;8.378;2023-04-12T01:34:00;15.95;;;3.50;;
35380;SDS011;21486;51.916;8.378;2023-04-12T01:36:27;10.82;;;3.10;;
35380;SDS011;21486;51.916;8.378;2023-04-12T01:38:54;9.80;;;3.45;;
35380;SDS011;21486;51.916;8.378;2023-04-12T01:41:21;9.80;;;3.30;;
35380;SDS011;21486;51.916;8.378;2023-04-12T01:43:47;11.27;;;3.50;;
35380;SDS011;21486;51.916;8.378;2023-04-12T01:46:14;10.68;;;3.53;;
35380;SDS011;21486;51.916;8.378;2023-04-12T01:48:41;9.73;;;3.37;;
35380;SDS011;21486;51.916;8.378;2023-04-12T01:54:16;10.57;;;3.25;;
35380;SDS011;21486;51.916;8.378;2023-04-12T01:56:46;10.40;;;3.42;;
35380;SDS011;21486;51.916;8.378;2023-04-12T01:59:18;13.75;;;4.05;;
35380;SDS011;21486;51.916;8.378;2023-04-12T02:01:45;7.93;;;2.90;;
35380;SDS011;21486;51.916;8.378;2023-04-12T02:04:12;9.10;;;3.17;;
35380;SDS011;21486;51.916;8.378;2023-04-12T02:06:39;9.18;;;2.97;;
35380;SDS011;21486;51.916;8.378;2023-04-12T02:09:06;10.68;;;2.80;;
35380;SDS011;21486;51.916;8.378;2023-04-12T02:11:31;10.15;;;2.97;;
35380;SDS011;21486;51.916;8.378;2023-04-12T02:13:57;13.05;;;3.10;;
35380;SDS011;21486;51.916;8.378;2023-04-12T02:16:22;15.07;;;3.38;;
35380;SDS011;21486;51.916;8.378;2023-04-12T02:18:49;17.88;;;3.40;;
35380;SDS011;21486;51.916;8.378;2023-04-12T02:21:15;14.05;;;3.40;;
35380;SDS011;21486;51.916;8.378;2023-04-12T02:23:41;10.33;;;3.07;;
35380;SDS011;21486;51.916;8.378;2023-04-12T02:26:08;11.77;;;3.13;;
35380;SDS011;21486;51.916;8.378;2023-04-12T02:28:35;9.40;;;2.50;;
35380;SDS011;21486;51.916;8.378;2023-04-12T02:31:02;11.27;;;3.28;;
35380;SDS011;21486;51.916;8.378;2023-04-12T02:33:28;10.55;;;2.97;;
35380;SDS011;21486;51.916;8.378;2023-04-12T02:35:54;9.63;;;2.92;;
35380;SDS011;21486;51.916;8.378;2023-04-12T02:38:21;11.88;;;3.00;;
35380;SDS011;21486;51.916;8.378;2023-04-12T02:40:47;11.73;;;3.47;;
35380;SDS011;21486;51.916;8.378;2023-04-12T02:43:13;11.17;;;2.67;;
35380;SDS011;21486;51.916;8.378;2023-04-12T02:45:38;9.00;;;2.70;;
35380;SDS011;21486;51.916;8.378;2023-04-12T02:48:04;11.53;;;3.40;;
35380;SDS011;21486;51.916;8.378;2023-04-12T02:50:30;12.63;;;2.80;;
35380;SDS011;21486;51.916;8.378;2023-04-12T02:52:55;9.15;;;2.85;;
35380;SDS011;21486;51.916;8.378;2023-04-12T02:55:21;10.38;;;2.72;;
35380;SDS011;21486;51.916;8.378;2023-04-12T02:57:46;11.10;;;3.13;;
35380;SDS011;21486;51.916;8.378;2023-04-12T03:00:12;10.52;;;2.75;;
35380;SDS011;21486;51.916;8.378;2023-04-12T03:02:42;8.73;;;3.30;;
35380;SDS011;21486;51.916;8.378;2023-04-12T03:05:08;12.30;;;2.75;;
35380;SDS011;21486;51.916;8.378;2023-04-12T03:07:33;9.35;;;3.10;;
35380;SDS011;21486;51.916;8.378;2023-04-12T03:10:02;12.60;;;3.45;;
35380;SDS011;21486;51.916;8.378;2023-04-12T03:12:31;11.45;;;3.00;;
35380;SDS011;21486;51.916;8.378;2023-04-12T03:14:57;12.77;;;3.57;;
35380;SDS011;21486;51.916;8.378;2023-04-12T03:17:22;9.63;;;3.00;;
35380;SDS011;21486;51.916;8.378;2023-04-12T03:19:48;17.17;;;3.33;;
35380;SDS011;21486;51.916;8.378;2023-04-12T03:22:13;13.98;;;2.90;;
35380;SDS011;21486;51.916;8.378;2023-04-12T03:24:39;9.18;;;2.90;;
35380;SDS011;21486;51.916;8.378;2023-04-12T03:27:08;11.57;;;3.17;;
35380;SDS011;21486;51.916;8.378;2023-04-12T03:29:34;13.55;;;3.55;;
35380;SDS011;21486;51.916;8.378;2023-04-12T03:31:59;12.30;;;3.28;;
35380;SDS011;21486;51.916;8.378;2023-04-12T03:34:25;7.60;;;2.53;;
35380;SDS011;21486;51.916;8.378;2023-04-12T03:36:52;14.32;;;3.20;;
35380;SDS011;21486;51.916;8.378;2023-04-12T03:39:19;12.50;;;2.90;;
35380;SDS011;21486;51.916;8.378;2023-04-12T03:41:44;11.57;;;3.58;;
35380;SDS011;21486;51.916;8.378;2023-04-12T03:44:10;11.73;;;3.40;;
35380;SDS011;21486;51.916;8.378;2023-04-12T03:46:36;8.85;;;3.30;;
35380;SDS011;21486;51.916;8.378;2023-04-12T03:49:01;14.25;;;3.33;;
35380;SDS011;21486;51.916;8.378;2023-04-12T03:51:27;10.73;;;3.40;;
35380;SDS011;21486;51.916;8.378;2023-04-12T03:53:54;7.40;;;3.38;;
35380;SDS011;21486;51.916;8.378;2023-04-12T03:56:20;11.90;;;3.25;;
35380;SDS011;21486;51.916;8.378;2023-04-12T03:58:46;10.20;;;3.10;;
35380;SDS011;21486;51.916;8.378;2023-04-12T04:01:12;9.95;;;3.30;;
35380;SDS011;21486;51.916;8.378;2023-04-12T04:03:38;9.27;;;2.80;;
35380;SDS011;21486;51.916;8.378;2023-04-12T04:06:04;10.52;;;3.00;;
35380;SDS011;21486;51.916;8.378;2023-04-12T04:08:31;11.02;;;3.28;;
35380;SDS011;21486;51.916;8.378;2023-04-12T04:10:57;7.18;;;2.67;;
35380;SDS011;21486;51.916;8.378;2023-04-12T04:13:23;7.50;;;2.50;;
35380;SDS011;21486;51.916;8.378;2023-04-12T04:15:49;9.63;;;2.70;;
35380;SDS011;21486;51.916;8.378;2023-04-12T04:18:22;7.75;;;3.03;;
35380;SDS011;21486;51.916;8.378;2023-04-12T04:20:48;8.98;;;2.72;;
35380;SDS011;21486;51.916;8.378;2023-04-12T04:23:13;10.53;;;3.20;;
35380;SDS011;21486;51.916;8.378;2023-04-12T04:25:41;11.23;;;3.13;;
35380;SDS011;21486;51.916;8.378;2023-04-12T04:28:07;7.80;;;2.47;;
35380;SDS011;21486;51.916;8.378;2023-04-12T04:30:33;9.65;;;3.00;;
35380;SDS011;21486;51.916;8.378;2023-04-12T04:33:03;10.45;;;2.70;;
35380;SDS011;21486;51.916;8.378;2023-04-12T04:35:29;12.13;;;2.95;;
35380;SDS011;21486;51.916;8.378;2023-04-12T04:37:55;10.05;;;2.80;;
35380;SDS011;21486;51.916;8.378;2023-04-12T04:40:21;10.68;;;2.70;;
35380;SDS011;21486;51.916;8.378;2023-04-12T04:42:48;10.30;;;2.95;;
35380;SDS011;21486;51.916;8.378;2023-04-12T04:45:19;14.27;;;3.00;;
35380;SDS011;21486;51.916;8.378;2023-04-12T04:47:51;10.07;;;2.70;;
35380;SDS011;21486;51.916;8.378;2023-04-12T04:50:17;11.05;;;3.17;;
35380;SDS011;21486;51.916;8.378;2023-04-12T04:52:45;16.60;;;2.73;;
35380;SDS011;21486;51.916;8.378;2023-04-12T04:55:12;8.40;;;2.75;;
35380;SDS011;21486;51.916;8.378;2023-04-12T04:57:38;13.43;;;3.08;;
35380;SDS011;21486;51.916;8.378;2023-04-12T05:00:04;10.13;;;2.78;;
35380;SDS011;21486;51.916;8.378;2023-04-12T05:02:37;11.02;;;2.97;;
35380;SDS011;21486;51.916;8.378;2023-04-12T05:05:06;11.45;;;2.80;;
35380;SDS011;21486;51.916;8.378;2023-04-12T05:07:33;10.20;;;2.58;;
35380;SDS011;21486;51.916;8.378;2023-04-12T05:09:58;8.85;;;3.03;;
35380;SDS011;21486;51.916;8.378;2023-04-12T05:12:24;10.90;;;2.73;;
35380;SDS011;21486;51.916;8.378;2023-04-12T05:14:49;12.77;;;3.10;;
35380;SDS011;21486;51.916;8.378;2023-04-12T05:17:15;13.70;;;2.93;;
35380;SDS011;21486;51.916;8.378;2023-04-12T05:19:40;8.35;;;2.47;;
35380;SDS011;21486;51.916;8.378;2023-04-12T05:22:08;9.95;;;2.80;;
35380;SDS011;21486;51.916;8.378;2023-04-12T05:24:34;9.57;;;2.50;;
35380;SDS011;21486;51.916;8.378;2023-04-12T05:27:00;6.67;;;2.60;;
35380;SDS011;21486;51.916;8.378;2023-04-12T05:29:25;9.53;;;3.00;;
35380;SDS011;21486;51.916;8.378;2023-04-12T05:31:51;13.00;;;2.93;;
35380;SDS011;21486;51.916;8.378;2023-04-12T05:34:17;5.97;;;2.33;;
35380;SDS011;21486;51.916;8.378;2023-04-12T05:36:42;8.13;;;2.40;;
35380;SDS011;21486;51.916;8.378;2023-04-12T05:39:08;6.00;;;2.33;;
35380;SDS011;21486;51.916;8.378;2023-04-12T05:41:34;7.07;;;2.25;;
35380;SDS011;21486;51.916;8.378;2023-04-12T05:43:59;10.02;;;2.55;;
35380;SDS011;21486;51.916;8.378;2023-04-12T05:46:25;8.43;;;2.53;;
35380;SDS011;21486;51.916;8.378;2023-04-12T05:48:50;9.30;;;2.50;;
35380;SDS011;21486;51.916;8.378;2023-04-12T05:51:16;5.83;;;2.30;;
35380;SDS011;21486;51.916;8.378;2023-04-12T05:53:41;7.93;;;2.77;;
35380;SDS011;21486;51.916;8.378;2023-04-12T05:56:07;7.07;;;2.53;;
35380;SDS011;21486;51.916;8.378;2023-04-12T05:58:33;8.13;;;2.80;;
35380;SDS011;21486;51.916;8.378;2023-04-12T06:00:58;8.55;;;2.80;;
35380;SDS011;21486;51.916;8.378;2023-04-12T06:03:24;6.13;;;2.47;;
35380;SDS011;21486;51.916;8.378;2023-04-12T06:05:50;5.00;;;2.20;;
35380;SDS011;21486;51.916;8.378;2023-04-12T06:08:16;8.25;;;2.65;;
35380;SDS011;21486;51.916;8.378;2023-04-12T06:10:42;9.30;;;2.55;;
35380;SDS011;21486;51.916;8.378;2023-04-12T06:13:08;8.75;;;2.80;;
35380;SDS011;21486;51.916;8.378;2023-04-12T06:15:33;7.82;;;2.53;;
35380;SDS011;21486;51.916;8.378;2023-04-12T06:18:00;7.88;;;2.78;;
35380;SDS011;21486;51.916;8.378;2023-04-12T06:20:25;6.78;;;2.80;;
35380;SDS011;21486;51.916;8.378;2023-04-12T06:22:51;7.43;;;3.23;;
35380;SDS011;21486;51.916;8.378;2023-04-12T06:25:17;7.20;;;2.80;;
35380;SDS011;21486;51.916;8.378;2023-04-12T06:27:42;8.50;;;2.57;;
35380;SDS011;21486;51.916;8.378;2023-04-12T06:30:08;5.67;;;2.57;;
35380;SDS011;21486;51.916;8.378;2023-04-12T06:32:33;6.22;;;2.53;;
35380;SDS011;21486;51.916;8.378;2023-04-12T06:34:59;6.70;;;2.75;;
35380;SDS011;21486;51.916;8.378;2023-04-12T06:37:25;6.53;;;2.75;;
35380;SDS011;21486;51.916;8.378;2023-04-12T06:39:50;8.27;;;2.75;;
35380;SDS011;21486;51.916;8.378;2023-04-12T06:42:16;6.47;;;2.75;;
35380;SDS011;21486;51.916;8.378;2023-04-12T06:44:42;5.68;;;2.80;;
35380;SDS011;21486;51.916;8.378;2023-04-12T06:47:07;6.25;;;2.90;;
35380;SDS011;21486;51.916;8.378;2023-04-12T06:49:33;7.43;;;3.10;;
35380;SDS011;21486;51.916;8.378;2023-04-12T06:51:59;8.25;;;3.30;;
35380;SDS011;21486;51.916;8.378;2023-04-12T06:54:24;8.32;;;3.33;;
35380;SDS011;21486;51.916;8.378;2023-04-12T06:56:50;9.18;;;3.70;;
35380;SDS011;21486;51.916;8.378;2023-04-12T06:59:15;9.13;;;3.10;;
35380;SDS011;21486;51.916;8.378;2023-04-12T07:01:41;7.20;;;3.38;;
35380;SDS011;21486;51.916;8.378;2023-04-12T07:04:07;9.23;;;3.60;;
35380;SDS011;21486;51.916;8.378;2023-04-12T07:06:32;8.07;;;3.40;;
35380;SDS011;21486;51.916;8.378;2023-04-12T07:08:58;8.50;;;3.50;;
35380;SDS011;21486;51.916;8.378;2023-04-12T07:11:23;11.37;;;3.57;;
35380;SDS011;21486;51.916;8.378;2023-04-12T07:13:49;7.25;;;3.55;;
35380;SDS011;21486;51.916;8.378;2023-04-12T07:16:15;7.13;;;3.60;;
35380;SDS011;21486;51.916;8.378;2023-04-12T07:18:41;8.13;;;3.67;;
35380;SDS011;21486;51.916;8.378;2023-04-12T07:21:07;10.43;;;3.40;;
35380;SDS011;21486;51.916;8.378;2023-04-12T07:23:32;9.68;;;3.40;;
35380;SDS011;21486;51.916;8.378;2023-04-12T07:25:58;5.33;;;3.20;;
35380;SDS011;21486;51.916;8.378;2023-04-12T07:28:25;6.00;;;3.20;;
35380;SDS011;21486;51.916;8.378;2023-04-12T07:30:50;9.18;;;3.70;;
35380;SDS011;21486;51.916;8.378;2023-04-12T07:33:16;6.10;;;3.10;;
35380;SDS011;21486;51.916;8.378;2023-04-12T07:35:41;7.73;;;3.40;;
35380;SDS011;21486;51.916;8.378;2023-04-12T07:38:07;8.00;;;3.63;;
35380;SDS011;21486;51.916;8.378;2023-04-12T07:40:32;11.40;;;3.70;;
35380;SDS011;21486;51.916;8.378;2023-04-12T07:42:58;6.83;;;3.73;;
35380;SDS011;21486;51.916;8.378;2023-04-12T07:45:24;8.05;;;3.50;;
35380;SDS011;21486;51.916;8.378;2023-04-12T07:47:50;6.33;;;3.53;;
35380;SDS011;21486;51.916;8.378;2023-04-12T07:50:15;5.97;;;3.40;;
35380;SDS011;21486;51.916;8.378;2023-04-12T07:52:41;7.93;;;3.60;;
35380;SDS011;21486;51.916;8.378;2023-04-12T07:55:06;7.27;;;3.73;;
35380;SDS011;21486;51.916;8.378;2023-04-12T07:57:34;5.50;;;3.53;;
35380;SDS011;21486;51.916;8.378;2023-04-12T07:59:59;6.23;;;3.53;;
35380;SDS011;21486;51.916;8.378;2023-04-12T08:02:25;5.83;;;3.50;;
35380;SDS011;21486;51.916;8.378;2023-04-12T08:04:50;9.40;;;3.80;;
35380;SDS011;21486;51.916;8.378;2023-04-12T08:07:16;6.95;;;3.88;;
35380;SDS011;21486;51.916;8.378;2023-04-12T08:09:42;7.43;;;3.95;;
35380;SDS011;21486;51.916;8.378;2023-04-12T08:12:08;6.40;;;3.78;;
35380;SDS011;21486;51.916;8.378;2023-04-12T08:14:33;5.82;;;3.30;;
35380;SDS011;21486;51.916;8.378;2023-04-12T08:16:59;6.68;;;3.72;;
35380;SDS011;21486;51.916;8.378;2023-04-12T08:19:25;6.70;;;3.72;;
35380;SDS011;21486;51.916;8.378;2023-04-12T08:21:51;7.72;;;3.42;;
35380;SDS011;21486;51.916;8.378;2023-04-12T08:24:17;6.95;;;3.80;;
35380;SDS011;21486;51.916;8.378;2023-04-12T08:26:43;4.57;;;3.33;;
35380;SDS011;21486;51.916;8.378;2023-04-12T08:29:09;8.50;;;3.78;;
35380;SDS011;21486;51.916;8.378;2023-04-12T08:31:35;6.23;;;3.80;;
35380;SDS011;21486;51.916;8.378;2023-04-12T08:34:00;6.40;;;3.93;;
35380;SDS011;21486;51.916;8.378;2023-04-12T08:36:26;7.93;;;3.40;;
35380;SDS011;21486;51.916;8.378;2023-04-12T08:38:52;4.28;;;3.50;;
35380;SDS011;21486;51.916;8.378;2023-04-12T08:41:19;7.05;;;3.80;;
35380;SDS011;21486;51.916;8.378;2023-04-12T08:43:46;6.00;;;3.75;;
35380;SDS011;21486;51.916;8.378;2023-04-12T08:46:12;5.82;;;3.72;;
35380;SDS011;21486;51.916;8.378;2023-04-12T08:48:45;9.07;;;3.92;;
35380;SDS011;21486;51.916;8.378;2023-04-12T08:51:13;5.90;;;3.58;;
35380;SDS011;21486;51.916;8.378;2023-04-12T08:53:44;5.78;;;3.50;;
35380;SDS011;21486;51.916;8.378;2023-04-12T08:56:10;6.22;;;3.25;;
35380;SDS011;21486;51.916;8.378;2023-04-12T08:58:39;4.40;;;3.13;;
35380;SDS011;21486;51.916;8.378;2023-04-12T09:01:12;5.63;;;3.10;;
35380;SDS011;21486;51.916;8.378;2023-04-12T09:03:39;6.97;;;3.00;;
35380;SDS011;21486;51.916;8.378;2023-04-12T09:06:08;4.18;;;3.17;;
35380;SDS011;21486;51.916;8.378;2023-04-12T09:08:34;4.57;;;2.75;;
35380;SDS011;21486;51.916;8.378;2023-04-12T09:11:00;3.10;;;2.40;;
35380;SDS011;21486;51.916;8.378;2023-04-12T09:13:33;3.17;;;2.10;;
35380;SDS011;21486;51.916;8.378;2023-04-12T09:15:59;3.47;;;2.50;;
35380;SDS011;21486;51.916;8.378;2023-04-12T09:18:25;3.40;;;2.47;;
35380;SDS011;21486;51.916;8.378;2023-04-12T09:21:05;3.65;;;2.45;;
35380;SDS011;21486;51.916;8.378;2023-04-12T09:23:32;4.63;;;2.42;;
35380;SDS011;21486;51.916;8.378;2023-04-12T09:26:00;3.00;;;2.10;;
35380;SDS011;21486;51.916;8.378;2023-04-12T09:28:26;3.58;;;2.03;;
35380;SDS011;21486;51.916;8.378;2023-04-12T09:30:54;2.42;;;1.95;;
35380;SDS011;21486;51.916;8.378;2023-04-12T09:33:21;3.13;;;2.20;;
35380;SDS011;21486;51.916;8.378;2023-04-12T09:35:58;3.75;;;2.15;;
35380;SDS011;21486;51.916;8.378;2023-04-12T09:38:25;3.05;;;2.10;;
35380;SDS011;21486;51.916;8.378;2023-04-12T09:40:51;2.90;;;1.90;;
35380;SDS011;21486;51.916;8.378;2023-04-12T09:43:16;2.47;;;2.00;;
35380;SDS011;21486;51.916;8.378;2023-04-12T09:45:42;1.70;;;1.50;;
35380;SDS011;21486;51.916;8.378;2023-04-12T09:48:07;2.83;;;2.08;;
35380;SDS011;21486;51.916;8.378;2023-04-12T09:50:43;3.78;;;1.98;;
35380;SDS011;21486;51.916;8.378;2023-04-12T09:53:14;3.15;;;1.80;;
35380;SDS011;21486;51.916;8.378;2023-04-12T09:55:43;2.58;;;1.40;;
35380;SDS011;21486;51.916;8.378;2023-04-12T09:58:10;2.25;;;1.60;;
35380;SDS011;21486;51.916;8.378;2023-04-12T10:00:37;2.70;;;1.80;;
35380;SDS011;21486;51.916;8.378;2023-04-12T10:03:03;3.58;;;1.70;;
35380;SDS011;21486;51.916;8.378;2023-04-12T10:05:30;1.90;;;1.67;;
35380;SDS011;21486;51.916;8.378;2023-04-12T10:07:56;3.90;;;2.10;;
35380;SDS011;21486;51.916;8.378;2023-04-12T10:10:22;4.23;;;2.80;;
35380;SDS011;21486;51.916;8.378;2023-04-12T10:12:48;4.83;;;2.00;;
35380;SDS011;21486;51.916;8.378;2023-04-12T10:15:14;2.30;;;1.80;;
35380;SDS011;21486;51.916;8.378;2023-04-12T10:17:46;2.25;;;1.60;;
35380;SDS011;21486;51.916;8.378;2023-04-12T10:20:16;2.42;;;1.65;;
35380;SDS011;21486;51.916;8.378;2023-04-12T10:22:44;1.95;;;1.52;;
35380;SDS011;21486;51.916;8.378;2023-04-12T10:25:15;1.50;;;1.40;;
35380;SDS011;21486;51.916;8.378;2023-04-12T10:27:43;2.45;;;1.40;;
35380;SDS011;21486;51.916;8.378;2023-04-12T10:32:48;3.20;;;1.50;;
35380;SDS011;21486;51.916;8.378;2023-04-12T10:35:14;1.90;;;1.75;;
35380;SDS011;21486;51.916;8.378;2023-04-12T10:37:59;2.00;;;1.40;;
35380;SDS011;21486;51.916;8.378;2023-04-12T10:40:28;4.15;;;1.92;;
35380;SDS011;21486;51.916;8.378;2023-04-12T10:45:42;1.15;;;1.10;;
35380;SDS011;21486;51.916;8.378;2023-04-12T10:48:27;2.90;;;1.10;;
35380;SDS011;21486;51.916;8.378;2023-04-12T10:51:12;1.80;;;1.50;;
35380;SDS011;21486;51.916;8.378;2023-04-12T10:53:39;1.48;;;1.38;;
35380;SDS011;21486;51.916;8.378;2023-04-12T10:59:01;5.05;;;1.63;;
35380;SDS011;21486;51.916;8.378;2023-04-12T11:01:28;2.10;;;1.42;;
35380;SDS011;21486;51.916;8.378;2023-04-12T11:06:47;1.90;;;1.65;;
35380;SDS011;21486;51.916;8.378;2023-04-12T11:14:36;2.50;;;1.45;;
35380;SDS011;21486;51.916;8.378;2023-04-12T11:19:37;1.63;;;1.30;;
35380;SDS011;21486;51.916;8.378;2023-04-12T11:22:06;3.17;;;1.30;;
35380;SDS011;21486;51.916;8.378;2023-04-12T11:24:32;1.50;;;1.20;;
35380;SDS011;21486;51.916;8.378;2023-04-12T11:27:01;4.90;;;4.13;;
35380;SDS011;21486;51.916;8.378;2023-04-12T11:29:28;2.10;;;1.27;;
35380;SDS011;21486;51.916;8.378;2023-04-12T11:31:56;9.73;;;5.70;;
35380;SDS011;21486;51.916;8.378;2023-04-12T11:34:22;19.37;;;14.23;;
35380;SDS011;21486;51.916;8.378;2023-04-12T11:36:50;55.60;;;37.27;;
35380;SDS011;21486;51.916;8.378;2023-04-12T11:39:17;3.13;;;2.40;;
35380;SDS011;21486;51.916;8.378;2023-04-12T11:41:46;1.90;;;1.40;;
35380;SDS011;21486;51.916;8.378;2023-04-12T11:44:13;3.05;;;1.10;;
35380;SDS011;21486;51.916;8.378;2023-04-12T11:46:43;3.72;;;1.08;;
35380;SDS011;21486;51.916;8.378;2023-04-12T11:49:09;2.13;;;1.23;;
35380;SDS011;21486;51.916;8.378;2023-04-12T11:51:40;1.80;;;1.20;;
35380;SDS011;21486;51.916;8.378;2023-04-12T11:54:05;3.78;;;2.78;;
35380;SDS011;21486;51.916;8.378;2023-04-12T11:56:31;2.43;;;1.70;;
35380;SDS011;21486;51.916;8.378;2023-04-12T11:58:57;1.38;;;1.27;;
35380;SDS011;21486;51.916;8.378;2023-04-12T12:01:22;2.17;;;1.20;;
35380;SDS011;21486;51.916;8.378;2023-04-12T12:03:48;2.80;;;1.45;;
35380;SDS011;21486;51.916;8.378;2023-04-12T12:06:14;2.60;;;1.15;;
35380;SDS011;21486;51.916;8.378;2023-04-12T12:08:41;1.45;;;1.10;;
35380;SDS011;21486;51.916;8.378;2023-04-12T12:11:07;1.00;;;0.90;;
35380;SDS011;21486;51.916;8.378;2023-04-12T12:13:45;1.00;;;1.00;;
35380;SDS011;21486;51.916;8.378;2023-04-12T12:16:12;2.05;;;0.80;;
35380;SDS011;21486;51.916;8.378;2023-04-12T12:18:39;1.30;;;0.80;;
35380;SDS011;21486;51.916;8.378;2023-04-12T12:21:08;1.40;;;0.90;;
35380;SDS011;21486;51.916;8.378;2023-04-12T12:23:36;2.20;;;0.90;;
35380;SDS011;21486;51.916;8.378;2023-04-12T12:26:02;0.87;;;0.80;;
35380;SDS011;21486;51.916;8.378;2023-04-12T12:28:29;0.90;;;0.90;;
35380;SDS011;21486;51.916;8.378;2023-04-12T12:30:55;1.20;;;1.02;;
35380;SDS011;21486;51.916;8.378;2023-04-12T12:33:24;2.63;;;1.05;;
35380;SDS011;21486;51.916;8.378;2023-04-12T12:36:01;1.55;;;1.30;;
35380;SDS011;21486;51.916;8.378;2023-04-12T12:38:36;2.23;;;1.43;;
35380;SDS011;21486;51.916;8.378;2023-04-12T12:41:18;1.90;;;1.20;;
35380;SDS011;21486;51.916;8.378;2023-04-12T12:43:45;1.98;;;1.40;;
35380;SDS011;21486;51.916;8.378;2023-04-12T12:46:12;1.70;;;1.37;;
35380;SDS011;21486;51.916;8.378;2023-04-12T12:48:41;2.00;;;1.30;;
35380;SDS011;21486;51.916;8.378;2023-04-12T12:51:07;2.55;;;1.52;;
35380;SDS011;21486;51.916;8.378;2023-04-12T12:53:37;1.45;;;1.35;;
35380;SDS011;21486;51.916;8.378;2023-04-12T12:56:04;4.20;;;1.30;;
35380;SDS011;21486;51.916;8.378;2023-04-12T12:58:30;1.88;;;1.20;;
35380;SDS011;21486;51.916;8.378;2023-04-12T13:00:56;2.20;;;1.20;;
35380;SDS011;21486;51.916;8.378;2023-04-12T13:03:21;2.00;;;1.40;;
35380;SDS011;21486;51.916;8.378;2023-04-12T13:05:47;2.15;;;1.50;;
35380;SDS011;21486;51.916;8.378;2023-04-12T13:08:14;2.20;;;1.40;;
35380;SDS011;21486;51.916;8.378;2023-04-12T13:10:39;1.77;;;1.20;;
35380;SDS011;21486;51.916;8.378;2023-04-12T13:13:05;1.70;;;1.50;;
35380;SDS011;21486;51.916;8.378;2023-04-12T13:15:30;1.90;;;1.50;;
35380;SDS011;21486;51.916;8.378;2023-04-12T13:17:56;4.60;;;1.90;;
35380;SDS011;21486;51.916;8.378;2023-04-12T13:20:22;1.90;;;1.60;;
35380;SDS011;21486;51.916;8.378;2023-04-12T13:22:48;5.18;;;1.75;;
35380;SDS011;21486;51.916;8.378;2023-04-12T13:25:14;2.27;;;1.80;;
35380;SDS011;21486;51.916;8.378;2023-04-12T13:27:39;3.17;;;2.30;;
35380;SDS011;21486;51.916;8.378;2023-04-12T13:30:05;3.40;;;2.97;;
35380;SDS011;21486;51.916;8.378;2023-04-12T13:32:32;4.35;;;3.30;;
35380;SDS011;21486;51.916;8.378;2023-04-12T13:34:57;4.60;;;3.67;;
35380;SDS011;21486;51.916;8.378;2023-04-12T13:37:23;6.63;;;4.50;;
35380;SDS011;21486;51.916;8.378;2023-04-12T13:39:49;6.00;;;4.85;;
35380;SDS011;21486;51.916;8.378;2023-04-12T13:42:15;7.53;;;5.27;;
35380;SDS011;21486;51.916;8.378;2023-04-12T13:44:41;5.93;;;5.07;;
35380;SDS011;21486;51.916;8.378;2023-04-12T13:47:07;6.72;;;4.75;;
35380;SDS011;21486;51.916;8.378;2023-04-12T13:49:32;6.05;;;4.47;;
35380;SDS011;21486;51.916;8.378;2023-04-12T13:51:58;6.60;;;4.65;;
35380;SDS011;21486;51.916;8.378;2023-04-12T13:54:23;5.83;;;4.90;;
35380;SDS011;21486;51.916;8.378;2023-04-12T13:56:49;6.28;;;4.80;;
35380;SDS011;21486;51.916;8.378;2023-04-12T13:59:15;4.93;;;4.30;;
35380;SDS011;21486;51.916;8.378;2023-04-12T14:01:41;5.47;;;4.43;;
35380;SDS011;21486;51.916;8.378;2023-04-12T14:04:07;5.60;;;4.60;;
35380;SDS011;21486;51.916;8.378;2023-04-12T14:06:32;6.30;;;4.93;;
35380;SDS011;21486;51.916;8.378;2023-04-12T14:08:58;8.13;;;4.73;;
35380;SDS011;21486;51.916;8.378;2023-04-12T14:11:23;5.68;;;5.13;;
35380;SDS011;21486;51.916;8.378;2023-04-12T14:13:49;5.45;;;4.95;;
35380;SDS011;21486;51.916;8.378;2023-04-12T14:16:15;6.05;;;5.43;;
35380;SDS011;21486;51.916;8.378;2023-04-12T14:18:40;5.65;;;5.10;;
35380;SDS011;21486;51.916;8.378;2023-04-12T14:21:07;6.10;;;5.30;;
35380;SDS011;21486;51.916;8.378;2023-04-12T14:23:33;5.28;;;4.50;;
35380;SDS011;21486;51.916;8.378;2023-04-12T14:25:59;5.30;;;4.80;;
35380;SDS011;21486;51.916;8.378;2023-04-12T14:28:24;5.10;;;4.60;;
35380;SDS011;21486;51.916;8.378;2023-04-12T14:30:54;5.72;;;5.13;;
35380;SDS011;21486;51.916;8.378;2023-04-12T14:33:21;5.90;;;4.80;;
35380;SDS011;21486;51.916;8.378;2023-04-12T14:35:46;4.93;;;4.43;;
35380;SDS011;21486;51.916;8.378;2023-04-12T14:38:12;8.90;;;6.70;;
35380;SDS011;21486;51.916;8.378;2023-04-12T14:40:38;5.20;;;4.50;;
35380;SDS011;21486;51.916;8.378;2023-04-12T14:43:04;4.85;;;4.40;;
35380;SDS011;21486;51.916;8.378;2023-04-12T14:45:29;4.70;;;4.30;;
35380;SDS011;21486;51.916;8.378;2023-04-12T14:47:55;5.20;;;4.70;;
35380;SDS011;21486;51.916;8.378;2023-04-12T14:50:20;5.20;;;4.32;;
35380;SDS011;21486;51.916;8.378;2023-04-12T14:52:47;5.63;;;4.90;;
35380;SDS011;21486;51.916;8.378;2023-04-12T14:55:13;4.78;;;4.05;;
35380;SDS011;21486;51.916;8.378;2023-04-12T14:57:38;5.00;;;3.87;;
35380;SDS011;21486;51.916;8.378;2023-04-12T15:00:05;4.40;;;3.90;;
35380;SDS011;21486;51.916;8.378;2023-04-12T15:02:37;6.10;;;4.28;;
35380;SDS011;21486;51.916;8.378;2023-04-12T15:05:08;3.72;;;3.00;;
35380;SDS011;21486;51.916;8.378;2023-04-12T15:07:33;4.18;;;3.47;;
35380;SDS011;21486;51.916;8.378;2023-04-12T15:09:59;4.65;;;3.53;;
35380;SDS011;21486;51.916;8.378;2023-04-12T15:12:25;4.15;;;3.40;;
35380;SDS011;21486;51.916;8.378;2023-04-12T15:14:52;5.90;;;3.10;;